Time;durP1;ratioP1;P1;durP2;ratioP2;P2;SDS_P1;SDS_P2;PMS_P1;PMS_P2;Temp;Humidity;BMP_temperature;BMP_pressure;BME280_temperature;BME280_humidity;BME280_pressure;Samples;Min_cycle;Max_cycle;Signal;HPM_P1;HPM_P2
2024/01/20 00:00:28;;;;;;;30.40;10.50;;;;;;;-2.64;100.00;99973.93;103898;1279;60562;-34
2024/01/20 00:02:54;;;;;;;32.10;10.80;;;;;;;-2.66;100.00;99974.21;103798;1285;60548;-32
2024/01/20 00:05:19;;;;;;;23.20;10.20;;;;;;;-2.64;100.00;99978.49;103880;1279;60605;-38
2024/01/20 00:07:45;;;;;;;29.20;10.70;;;;;;;-2.70;100.00;99979.52;103936;1279;60577;-33
2024/01/20 00:10:11;;;;;;;26.50;8.80;;;;;;;-2.85;100.00;99980.31;104042;1280;81278;-31
2024/01/20 00:12:40;;;;;;;27.30;9.10;;;;;;;-2.84;100.00;99973.27;103926;1279;60562;-30
2024/01/20 00:15:07;;;;;;;28.30;10.80;;;;;;;-2.92;100.00;99971.63;103861;1279;71817;-30
2024/01/20 00:17:33;;;;;;;25.40;9.10;;;;;;;-2.98;100.00;99970.96;103883;1280;60555;-32
2024/01/20 00:19:59;;;;;;;21.90;8.50;;;;;;;-3.06;100.00;99969.73;103891;1280;60401;-32
2024/01/20 00:22:25;;;;;;;26.20;10.30;;;;;;;-3.08;100.00;99972.00;103817;1279;60546;-32
2024/01/20 00:24:50;;;;;;;28.10;10.10;;;;;;;-3.17;100.00;99972.15;103774;1280;62093;-33
2024/01/20 00:27:16;;;;;;;22.70;8.90;;;;;;;-3.20;100.00;99971.69;103893;1279;60462;-33
2024/01/20 00:29:42;;;;;;;27.40;9.10;;;;;;;-3.28;100.00;99975.65;103881;1280;60495;-30
2024/01/20 00:32:08;;;;;;;21.70;9.40;;;;;;;-3.35;100.00;99971.02;103909;1279;60523;-31
2024/01/20 00:34:33;;;;;;;19.70;8.50;;;;;;;-3.45;100.00;99973.93;103893;1279;60901;-33
2024/01/20 00:37:00;;;;;;;26.00;9.40;;;;;;;-3.45;100.00;99972.86;103893;1279;60456;-37
2024/01/20 00:39:26;;;;;;;20.30;9.00;;;;;;;-3.45;100.00;99970.92;103796;1280;70044;-35
2024/01/20 00:41:51;;;;;;;30.40;10.70;;;;;;;-3.43;100.00;99977.49;103926;1279;60586;-31
2024/01/20 00:44:17;;;;;;;17.10;7.00;;;;;;;-3.44;100.00;99985.76;103689;1285;60581;-30
2024/01/20 00:46:43;;;;;;;29.80;10.00;;;;;;;-3.50;100.00;99982.77;103893;1285;60575;-30
2024/01/20 00:49:08;;;;;;;25.10;9.30;;;;;;;-3.54;100.00;99980.03;103919;1285;60598;-33
2024/01/20 00:51:34;;;;;;;19.80;7.90;;;;;;;-3.58;100.00;99978.70;103964;1282;60567;-33
2024/01/20 00:54:00;;;;;;;21.40;8.30;;;;;;;-3.63;100.00;99981.65;103897;1284;60596;-30
2024/01/20 00:56:25;;;;;;;18.90;6.90;;;;;;;-3.70;100.00;99983.80;103913;1284;60491;-33
2024/01/20 00:58:51;;;;;;;22.40;8.80;;;;;;;-3.72;100.00;99987.12;103856;1285;60542;-31
2024/01/20 01:01:17;;;;;;;25.10;9.30;;;;;;;-3.74;100.00;99987.02;103831;1284;60554;-33
2024/01/20 01:03:42;;;;;;;18.50;8.30;;;;;;;-3.74;100.00;99977.58;103891;1279;60556;-31
2024/01/20 01:06:09;;;;;;;19.00;7.20;;;;;;;-3.73;100.00;99977.33;103936;1279;60950;-35
2024/01/20 01:08:35;;;;;;;21.80;7.90;;;;;;;-3.81;100.00;99980.27;103862;1279;60488;-36
2024/01/20 01:11:00;;;;;;;18.70;6.70;;;;;;;-3.88;100.00;99989.63;103943;1280;60574;-30
2024/01/20 01:13:26;;;;;;;26.30;9.10;;;;;;;-3.90;100.00;99991.33;104022;1284;60625;-29
2024/01/20 01:15:51;;;;;;;19.00;7.00;;;;;;;-3.97;100.00;99999.21;103711;1279;74262;-32
2024/01/20 01:18:17;;;;;;;21.70;6.70;;;;;;;-4.03;100.00;99996.22;103667;1285;60594;-30
2024/01/20 01:20:43;;;;;;;20.10;7.40;;;;;;;-4.04;100.00;99997.73;103842;1285;60544;-33
2024/01/20 01:23:09;;;;;;;26.50;8.70;;;;;;;-4.00;100.00;99990.83;103915;1279;60628;-31
2024/01/20 01:25:35;;;;;;;27.60;8.80;;;;;;;-3.99;100.00;99992.66;103776;1279;60635;-36
2024/01/20 01:28:00;;;;;;;18.30;8.80;;;;;;;-3.99;100.00;99979.25;103846;1279;60562;-33
2024/01/20 01:30:26;;;;;;;20.60;7.70;;;;;;;-4.00;100.00;99973.48;103859;1279;61481;-31
2024/01/20 01:32:51;;;;;;;21.20;7.60;;;;;;;-3.98;100.00;99975.30;103891;1279;60560;-34
2024/01/20 01:35:17;;;;;;;29.10;8.40;;;;;;;-3.97;100.00;99972.10;104001;1280;60603;-33
2024/01/20 01:37:43;;;;;;;;;;;;;;;-3.96;100.00;99970.34;103932;1285;60453;-32
2024/01/20 01:40:09;;;;;;;18.10;7.20;;;;;;;-3.97;100.00;99973.16;103964;1285;60543;-31
2024/01/20 01:42:35;;;;;;;20.70;7.50;;;;;;;-3.96;100.00;99971.16;103946;1284;60522;-31
2024/01/20 01:45:00;;;;;;;20.00;7.60;;;;;;;-4.06;100.00;99986.33;103954;1279;60494;-31
2024/01/20 01:47:26;;;;;;;12.90;6.30;;;;;;;-4.11;100.00;99989.20;103866;1285;60488;-32
2024/01/20 01:49:51;;;;;;;26.60;7.60;;;;;;;-4.11;100.00;99993.20;103858;1280;60631;-33
2024/01/20 01:52:17;;;;;;;19.90;7.60;;;;;;;-4.20;100.00;100001.23;103931;1279;60569;-30
2024/01/20 02:33:16;;;;;;;19.60;7.60;;;;;;;-4.77;100.00;100008.63;103429;1284;613540;-32
2024/01/20 02:35:42;;;;;;;20.90;7.10;;;;;;;-4.46;100.00;100006.39;103544;1286;108837;-33
2024/01/20 02:38:07;;;;;;;18.90;7.20;;;;;;;-4.38;100.00;100009.27;103768;1284;59367;-30
2024/01/20 02:40:33;;;;;;;12.80;6.80;;;;;;;-4.35;100.00;100010.33;103742;1282;59269;-31
2024/01/20 02:42:59;;;;;;;16.80;6.50;;;;;;;-4.39;100.00;100017.17;103755;1284;59363;-31
2024/01/20 02:45:24;;;;;;;17.30;5.60;;;;;;;-4.41;100.00;100011.52;103700;1282;59365;-31
2024/01/20 02:47:51;;;;;;;22.20;7.80;;;;;;;-4.37;100.00;100016.58;103748;1284;59343;-33
2024/01/20 02:50:17;;;;;;;16.70;7.30;;;;;;;-4.43;100.00;100015.17;103751;1282;59233;-33
2024/01/20 02:52:42;;;;;;;21.10;7.10;;;;;;;-4.47;100.00;100018.35;103876;1284;59345;-35
2024/01/20 02:55:08;;;;;;;16.40;7.00;;;;;;;-4.44;100.00;100012.25;103873;1284;59385;-34
2024/01/20 02:57:34;;;;;;;16.90;8.00;;;;;;;-4.37;100.00;100012.52;103782;1282;68249;-34
2024/01/20 03:00:00;;;;;;;19.20;7.70;;;;;;;-4.30;100.00;100016.15;103732;1284;59994;-31
2024/01/20 03:02:25;;;;;;;18.30;8.00;;;;;;;-4.29;100.00;100021.17;103854;1281;59756;-31
2024/01/20 03:04:51;;;;;;;17.30;6.40;;;;;;;-4.19;100.00;100011.89;103794;1282;59837;-34
2024/01/20 03:07:16;;;;;;;24.00;8.40;;;;;;;-53.75;59.60;60005.96;102307;1282;1001763;-29
2024/01/20 03:09:42;;;;;;;14.70;5.20;;;;;;;-128.00;-1.00;-1.00;100189;1282;1004686;-29
2024/01/20 03:12:08;;;;;;;13.60;5.90;;;;;;;-128.00;-1.00;-1.00;100169;1282;1059505;-34
2024/01/20 03:14:33;;;;;;;;;;;;;;;-128.00;-1.00;-1.00;100297;1281;1004220;-31
2024/01/20 03:16:59;;;;;;;16.40;6.20;;;;;;;-128.00;-1.00;-1.00;100255;1284;1004455;-33
2024/01/20 03:19:25;;;;;;;18.30;7.20;;;;;;;-128.00;-1.00;-1.00;100048;1281;1060069;-33
2024/01/20 03:21:51;;;;;;;18.20;7.50;;;;;;;-128.00;-1.00;-1.00;100203;1282;1004735;-31
2024/01/20 03:24:18;;;;;;;13.70;6.60;;;;;;;-128.00;-1.00;-1.00;100189;1281;1005196;-31
2024/01/20 03:26:45;;;;;;;16.30;6.80;;;;;;;-128.00;-1.00;-1.00;100244;1284;1046560;-30
2024/01/20 03:29:11;;;;;;;18.40;7.30;;;;;;;-128.00;-1.00;-1.00;100185;1281;1004031;-30
2024/01/20 03:31:37;;;;;;;14.20;6.10;;;;;;;-128.00;-1.00;-1.00;100168;1281;1004680;-33
2024/01/20 03:34:02;;;;;;;13.90;6.00;;;;;;;-128.00;-1.00;-1.00;100144;1282;1004323;-33
2024/01/20 03:36:28;;;;;;;14.90;5.60;;;;;;;-128.00;-1.00;-1.00;100163;1282;1014330;-32
2024/01/20 03:38:53;;;;;;;18.40;7.10;;;;;;;-128.00;-1.00;-1.00;100095;1281;1004263;-30
2024/01/20 03:41:19;;;;;;;20.70;7.30;;;;;;;-128.00;-1.00;-1.00;100242;1281;1003915;-32
2024/01/20 03:43:45;;;;;;;12.60;5.60;;;;;;;-128.00;-1.00;-1.00;100163;1282;1004665;-34
2024/01/20 03:46:10;;;;;;;14.00;6.20;;;;;;;-128.00;-1.00;-1.00;100034;1281;1004293;-32
2024/01/20 03:48:36;;;;;;;14.20;6.50;;;;;;;-128.00;-1.00;-1.00;100068;1285;1047274;-34
2024/01/20 03:51:02;;;;;;;19.70;6.90;;;;;;;-128.00;-1.00;-1.00;100230;1281;1004006;-31
2024/01/20 03:53:28;;;;;;;17.90;7.50;;;;;;;-128.00;-1.00;-1.00;100160;1282;1056410;-30
2024/01/20 03:55:55;;;;;;;15.70;6.50;;;;;;;-128.00;-1.00;-1.00;100152;1280;1005065;-34
2024/01/20 03:58:20;;;;;;;12.30;5.30;;;;;;;-128.00;-1.00;-1.00;100096;1286;1046422;-30
2024/01/20 04:00:46;;;;;;;14.20;6.40;;;;;;;-128.00;-1.00;-1.00;100132;1281;1004675;-30
2024/01/20 04:03:12;;;;;;;;;;;;;;;-128.00;-1.00;-1.00;100300;1281;1056728;-33
2024/01/20 04:05:39;;;;;;;17.20;5.70;;;;;;;-128.00;-1.00;-1.00;100111;1282;1004179;-30
2024/01/20 04:08:05;;;;;;;13.90;5.50;;;;;;;-128.00;-1.00;-1.00;100220;1281;1004681;-30
2024/01/20 04:10:31;;;;;;;17.90;6.80;;;;;;;-128.00;-1.00;-1.00;100170;1282;1004568;-33
2024/01/20 04:12:56;;;;;;;14.50;5.40;;;;;;;-128.00;-1.00;-1.00;100212;1281;1003757;-31
2024/01/20 04:15:22;;;;;;;21.90;6.60;;;;;;;-128.00;-1.00;-1.00;100311;1281;1056511;-33
2024/01/20 04:17:48;;;;;;;16.20;6.10;;;;;;;-128.00;-1.00;-1.00;100118;1281;1003927;-31
2024/01/20 04:20:13;;;;;;;16.20;6.60;;;;;;;-128.00;-1.00;-1.00;100131;1281;1004750;-30
2024/01/20 04:22:39;;;;;;;14.70;5.70;;;;;;;-128.00;-1.00;-1.00;100224;1282;1048076;-33
2024/01/20 04:25:05;;;;;;;16.20;5.50;;;;;;;-128.00;-1.00;-1.00;100260;1281;1005118;-31
2024/01/20 04:27:31;;;;;;;14.40;6.50;;;;;;;-128.00;-1.00;-1.00;100214;1285;1004521;-33
2024/01/20 04:29:56;;;;;;;17.80;6.60;;;;;;;-128.00;-1.00;-1.00;100177;1281;1004120;-34
2024/01/20 04:32:22;;;;;;;10.10;5.80;;;;;;;-128.00;-1.00;-1.00;100181;1281;1003624;-35
2024/01/20 04:34:47;;;;;;;10.10;4.80;;;;;;;-128.00;-1.00;-1.00;100128;1282;1005491;-32
2024/01/20 04:37:13;;;;;;;14.80;5.10;;;;;;;-128.00;-1.00;-1.00;100219;1281;1056498;-33
2024/01/20 04:39:39;;;;;;;9.40;4.60;;;;;;;-128.00;-1.00;-1.00;100177;1281;1005137;-32
2024/01/20 04:42:05;;;;;;;16.80;5.70;;;;;;;-128.00;-1.00;-1.00;100202;1282;1004750;-31
2024/01/20 04:44:30;;;;;;;15.80;6.00;;;;;;;-128.00;-1.00;-1.00;100210;1281;1047441;-33
2024/01/20 04:46:56;;;;;;;15.40;5.60;;;;;;;-128.00;-1.00;-1.00;100066;1281;1004016;-33
2024/01/20 04:49:22;;;;;;;;;;;;;;;-128.00;-1.00;-1.00;100158;1282;1059692;-29
2024/01/20 04:51:47;;;;;;;19.20;6.10;;;;;;;-128.00;-1.00;-1.00;100165;1281;1004677;-32
2024/01/20 04:54:13;;;;;;;14.50;5.00;;;;;;;-128.00;-1.00;-1.00;100171;1282;1047264;-30
2024/01/20 04:56:39;;;;;;;9.40;4.20;;;;;;;-128.00;-1.00;-1.00;100144;1282;1004515;-33
2024/01/20 04:59:04;;;;;;;14.90;5.60;;;;;;;-128.00;-1.00;-1.00;100183;1281;1004940;-31
2024/01/20 05:01:30;;;;;;;16.30;6.00;;;;;;;-128.00;-1.00;-1.00;100123;1282;1004688;-33
2024/01/20 05:03:55;;;;;;;9.50;4.60;;;;;;;-128.00;-1.00;-1.00;100187;1282;1004992;-30
2024/01/20 05:06:21;;;;;;;9.80;5.20;;;;;;;-128.00;-1.00;-1.00;100093;1282;1004949;-30
2024/01/20 05:08:47;;;;;;;12.80;5.30;;;;;;;-128.00;-1.00;-1.00;100229;1281;1004761;-33
2024/01/20 05:11:12;;;;;;;13.70;6.00;;;;;;;-128.00;-1.00;-1.00;100110;1282;1004782;-31
2024/01/20 05:13:39;;;;;;;12.90;4.40;;;;;;;-128.00;-1.00;-1.00;100205;1284;1045960;-31
2024/01/20 05:16:04;;;;;;;10.30;4.50;;;;;;;-128.00;-1.00;-1.00;100215;1281;1005308;-35
2024/01/20 05:18:30;;;;;;;9.80;4.80;;;;;;;-128.00;-1.00;-1.00;100024;1281;1004242;-34
2024/01/20 05:20:55;;;;;;;13.70;5.30;;;;;;;-128.00;-1.00;-1.00;100152;1280;1003916;-33
2024/01/20 05:23:21;;;;;;;9.70;4.60;;;;;;;-128.00;-1.00;-1.00;100153;1284;1004373;-32
2024/01/20 05:25:46;;;;;;;11.90;4.30;;;;;;;-128.00;-1.00;-1.00;100102;1281;1004530;-30
2024/01/20 05:28:12;;;;;;;14.30;3.30;;;;;;;-128.00;-1.00;-1.00;100118;1282;1055603;-33
2024/01/20 05:30:38;;;;;;;13.10;4.40;;;;;;;-128.00;-1.00;-1.00;100150;1280;1004461;-32
2024/01/20 05:33:04;;;;;;;11.90;4.80;;;;;;;-128.00;-1.00;-1.00;100063;1286;1046706;-33
2024/01/20 05:35:29;;;;;;;12.90;4.40;;;;;;;-128.00;-1.00;-1.00;100177;1282;1003463;-35
2024/01/20 05:37:55;;;;;;;8.10;3.20;;;;;;;-128.00;-1.00;-1.00;100239;1281;1004749;-31
2024/01/20 05:40:20;;;;;;;13.50;4.70;;;;;;;-128.00;-1.00;-1.00;100304;1281;1059347;-32
2024/01/20 05:42:46;;;;;;;10.30;4.60;;;;;;;-128.00;-1.00;-1.00;100203;1282;1004563;-30
2024/01/20 05:45:14;;;;;;;11.10;5.20;;;;;;;-128.00;-1.00;-1.00;100128;1286;1004140;-33
2024/01/20 05:47:40;;;;;;;8.40;3.90;;;;;;;-128.00;-1.00;-1.00;100244;1281;1059330;-32
2024/01/20 05:50:05;;;;;;;;;;;;;;;-128.00;-1.00;-1.00;100068;1281;1005155;-33
2024/01/20 05:52:31;;;;;;;8.20;3.60;;;;;;;-128.00;-1.00;-1.00;100272;1282;1004550;-33
2024/01/20 05:54:57;;;;;;;9.40;3.50;;;;;;;-128.00;-1.00;-1.00;100112;1284;1046546;-33
2024/01/20 05:57:23;;;;;;;11.30;4.50;;;;;;;-128.00;-1.00;-1.00;100176;1286;1004750;-31
2024/01/20 05:59:50;;;;;;;13.50;4.10;;;;;;;-128.00;-1.00;-1.00;100167;1283;1004783;-31
2024/01/20 06:02:16;;;;;;;11.10;3.30;;;;;;;-128.00;-1.00;-1.00;100200;1281;1004637;-34
2024/01/20 06:04:41;;;;;;;;;;;;;;;-128.00;-1.00;-1.00;100140;1282;1004562;-30
2024/01/20 06:07:07;;;;;;;9.70;4.30;;;;;;;-128.00;-1.00;-1.00;100132;1282;1004548;-33
2024/01/20 06:09:32;;;;;;;8.80;3.70;;;;;;;-128.00;-1.00;-1.00;100191;1282;1005326;-33
2024/01/20 06:11:58;;;;;;;15.70;4.80;;;;;;;-128.00;-1.00;-1.00;100171;1281;1005129;-33
2024/01/20 06:14:23;;;;;;;10.40;3.10;;;;;;;-128.00;-1.00;-1.00;100127;1281;1005058;-32
2024/01/20 06:16:49;;;;;;;11.10;4.30;;;;;;;-128.00;-1.00;-1.00;100146;1282;1004665;-31
2024/01/20 06:19:14;;;;;;;10.00;3.50;;;;;;;-128.00;-1.00;-1.00;100219;1282;1004415;-33
2024/01/20 06:21:40;;;;;;;10.80;4.20;;;;;;;-128.00;-1.00;-1.00;100106;1281;1004438;-30
2024/01/20 06:24:07;;;;;;;11.40;3.30;;;;;;;-128.00;-1.00;-1.00;100214;1282;1003936;-34
2024/01/20 06:26:32;;;;;;;12.20;3.70;;;;;;;-128.00;-1.00;-1.00;100168;1281;1004824;-28
2024/01/20 06:28:58;;;;;;;9.40;3.10;;;;;;;-128.00;-1.00;-1.00;100152;1281;1004361;-29
2024/01/20 06:31:25;;;;;;;9.30;3.90;;;;;;;-128.00;-1.00;-1.00;100220;1281;1004667;-31
2024/01/20 06:33:52;;;;;;;8.50;2.70;;;;;;;-128.00;-1.00;-1.00;100115;1281;1059808;-34
2024/01/20 06:36:18;;;;;;;10.30;3.50;;;;;;;-128.00;-1.00;-1.00;100211;1282;1004643;-29
2024/01/20 06:38:44;;;;;;;10.80;4.00;;;;;;;-128.00;-1.00;-1.00;100113;1281;1003772;-32
2024/01/20 06:41:10;;;;;;;8.80;3.40;;;;;;;-128.00;-1.00;-1.00;100234;1281;1004489;-31
2024/01/20 06:43:36;;;;;;;11.00;2.70;;;;;;;-128.00;-1.00;-1.00;100159;1283;1003686;-31
2024/01/20 06:46:02;;;;;;;7.20;2.50;;;;;;;-128.00;-1.00;-1.00;100045;1281;1060565;-31
2024/01/20 06:48:32;;;;;;;13.90;4.10;;;;;;;-128.00;-1.00;-1.00;100123;1281;1004833;-34
2024/01/20 06:50:59;;;;;;;10.70;3.90;;;;;;;-128.00;-1.00;-1.00;100156;1282;1059321;-32
2024/01/20 06:53:27;;;;;;;8.20;2.60;;;;;;;-128.00;-1.00;-1.00;100191;1282;1004919;-33
2024/01/20 06:55:53;;;;;;;9.10;3.40;;;;;;;-128.00;-1.00;-1.00;100174;1284;1004637;-33
2024/01/20 06:58:18;;;;;;;9.80;3.10;;;;;;;-128.00;-1.00;-1.00;100177;1284;1004646;-30
2024/01/20 07:00:44;;;;;;;9.00;3.40;;;;;;;-128.00;-1.00;-1.00;100223;1281;1004431;-31
2024/01/20 07:03:09;;;;;;;10.90;3.70;;;;;;;-128.00;-1.00;-1.00;100187;1282;1004735;-34
2024/01/20 07:05:35;;;;;;;6.60;2.80;;;;;;;-128.00;-1.00;-1.00;100088;1282;1005692;-33
2024/01/20 07:08:01;;;;;;;7.60;3.20;;;;;;;-128.00;-1.00;-1.00;100155;1281;1047245;-33
2024/01/20 07:10:27;;;;;;;9.30;3.50;;;;;;;-128.00;-1.00;-1.00;100156;1282;1004929;-30
2024/01/20 07:12:52;;;;;;;9.70;3.50;;;;;;;-128.00;-1.00;-1.00;100166;1282;1004508;-30
2024/01/20 07:15:18;;;;;;;13.30;3.40;;;;;;;-128.00;-1.00;-1.00;100096;1281;1004716;-33
2024/01/20 07:17:44;;;;;;;9.70;3.20;;;;;;;-128.00;-1.00;-1.00;100017;1281;1004991;-31
2024/01/20 07:20:10;;;;;;;8.40;3.00;;;;;;;-128.00;-1.00;-1.00;100239;1282;1004015;-29
2024/01/20 07:22:36;;;;;;;7.50;3.20;;;;;;;-128.00;-1.00;-1.00;100120;1281;1055911;-30
2024/01/20 07:25:02;;;;;;;7.90;3.00;;;;;;;-128.00;-1.00;-1.00;100067;1281;1004600;-31
2024/01/20 07:27:27;;;;;;;;;;;;;;;-128.00;-1.00;-1.00;100170;1284;1004476;-33
2024/01/20 07:29:53;;;;;;;9.50;3.50;;;;;;;-128.00;-1.00;-1.00;100165;1281;1004305;-34
2024/01/20 07:32:19;;;;;;;10.20;4.00;;;;;;;-128.00;-1.00;-1.00;100203;1281;1004709;-32
2024/01/20 07:34:45;;;;;;;7.40;3.40;;;;;;;-128.00;-1.00;-1.00;100166;1282;1059337;-33
2024/01/20 07:37:11;;;;;;;7.90;3.50;;;;;;;-128.00;-1.00;-1.00;100202;1280;1004112;-31
2024/01/20 07:39:37;;;;;;;11.30;2.80;;;;;;;-128.00;-1.00;-1.00;100174;1282;1005020;-33
2024/01/20 07:42:02;;;;;;;;;;;;;;;-128.00;-1.00;-1.00;100188;1281;1060744;-30
2024/01/20 07:44:28;;;;;;;6.70;2.30;;;;;;;-128.00;-1.00;-1.00;100144;1281;1004599;-34
2024/01/20 07:46:54;;;;;;;7.90;3.00;;;;;;;-128.00;-1.00;-1.00;100146;1281;1004698;-29
2024/01/20 07:49:20;;;;;;;7.30;2.70;;;;;;;-128.00;-1.00;-1.00;100142;1284;1046543;-32
2024/01/20 07:51:45;;;;;;;8.10;3.00;;;;;;;-128.00;-1.00;-1.00;100151;1282;1005153;-33
2024/01/20 07:54:12;;;;;;;7.70;3.60;;;;;;;-128.00;-1.00;-1.00;100180;1281;1004573;-33
2024/01/20 07:56:38;;;;;;;6.50;3.30;;;;;;;-128.00;-1.00;-1.00;100015;1281;1059655;-31
2024/01/20 07:59:03;;;;;;;9.80;3.00;;;;;;;-128.00;-1.00;-1.00;100062;1281;1004765;-32
2024/01/20 08:01:29;;;;;;;8.90;2.90;;;;;;;-128.00;-1.00;-1.00;100238;1282;1004705;-31
2024/01/20 08:03:55;;;;;;;6.10;2.80;;;;;;;-128.00;-1.00;-1.00;100157;1282;1061236;-34
2024/01/20 08:06:20;;;;;;;12.90;4.00;;;;;;;-128.00;-1.00;-1.00;100100;1281;1005043;-35
2024/01/20 08:08:46;;;;;;;4.20;2.40;;;;;;;-128.00;-1.00;-1.00;100101;1282;1004823;-36
2024/01/20 08:11:12;;;;;;;8.00;3.00;;;;;;;-128.00;-1.00;-1.00;100076;1282;1003622;-29
2024/01/20 08:13:38;;;;;;;7.00;2.90;;;;;;;-128.00;-1.00;-1.00;100159;1282;1004164;-30
2024/01/20 08:16:04;;;;;;;11.10;3.30;;;;;;;-128.00;-1.00;-1.00;100221;1281;1004809;-30
2024/01/20 08:18:30;;;;;;;6.90;2.90;;;;;;;-128.00;-1.00;-1.00;100050;1280;1059613;-32
2024/01/20 08:20:56;;;;;;;5.40;2.80;;;;;;;-128.00;-1.00;-1.00;100144;1281;1004625;-32
2024/01/20 08:23:21;;;;;;;6.30;3.30;;;;;;;-128.00;-1.00;-1.00;100176;1284;1005241;-31
2024/01/20 08:25:47;;;;;;;8.00;3.40;;;;;;;-128.00;-1.00;-1.00;100125;1281;1005046;-33
2024/01/20 08:28:12;;;;;;;13.50;5.00;;;;;;;-128.00;-1.00;-1.00;100109;1281;1004524;-35
2024/01/20 08:30:38;;;;;;;9.60;3.20;;;;;;;-128.00;-1.00;-1.00;100140;1280;1014567;-30
2024/01/20 08:33:04;;;;;;;7.60;3.50;;;;;;;-128.00;-1.00;-1.00;100132;1282;1004731;-32
2024/01/20 08:35:29;;;;;;;7.80;3.50;;;;;;;-128.00;-1.00;-1.00;100229;1281;1004574;-33
2024/01/20 08:37:55;;;;;;;5.70;2.60;;;;;;;-128.00;-1.00;-1.00;100122;1282;1056286;-31
2024/01/20 08:40:21;;;;;;;7.70;3.10;;;;;;;-128.00;-1.00;-1.00;100046;1282;1005014;-30
2024/01/20 08:42:46;;;;;;;12.30;4.40;;;;;;;-128.00;-1.00;-1.00;100122;1282;1004470;-32
2024/01/20 08:45:12;;;;;;;14.30;4.00;;;;;;;-128.00;-1.00;-1.00;100165;1282;1047435;-30
2024/01/20 08:47:38;;;;;;;;;;;;;;;-128.00;-1.00;-1.00;100135;1281;1004875;-32
2024/01/20 08:50:04;;;;;;;7.40;3.50;;;;;;;-128.00;-1.00;-1.00;100164;1282;1005040;-36
2024/01/20 08:52:30;;;;;;;;;;;;;;;-128.00;-1.00;-1.00;100156;1281;1014363;-30
2024/01/20 08:54:55;;;;;;;11.90;4.40;;;;;;;-128.00;-1.00;-1.00;100178;1282;1005012;-31
2024/01/20 08:57:21;;;;;;;10.80;5.10;;;;;;;-128.00;-1.00;-1.00;100110;1281;1061460;-32
2024/01/20 08:59:47;;;;;;;16.30;7.60;;;;;;;-128.00;-1.00;-1.00;100142;1281;1004428;-32
2024/01/20 09:02:13;;;;;;;9.30;4.40;;;;;;;-128.00;-1.00;-1.00;100104;1282;1003556;-33
2024/01/20 09:04:38;;;;;;;;;;;;;;;-128.00;-1.00;-1.00;100149;1284;1045517;-30
2024/01/20 09:07:04;;;;;;;8.60;3.40;;;;;;;-128.00;-1.00;-1.00;100145;1281;1004229;-31
2024/01/20 09:09:30;;;;;;;18.90;4.80;;;;;;;-128.00;-1.00;-1.00;100066;1282;1003814;-30
2024/01/20 09:11:55;;;;;;;10.80;5.80;;;;;;;-128.00;-1.00;-1.00;100159;1281;1004513;-30
2024/01/20 09:14:21;;;;;;;11.80;4.00;;;;;;;-128.00;-1.00;-1.00;100107;1284;1004890;-32
2024/01/20 09:16:46;;;;;;;12.30;4.60;;;;;;;-128.00;-1.00;-1.00;100130;1282;1004895;-33
2024/01/20 09:19:12;;;;;;;16.20;6.70;;;;;;;-128.00;-1.00;-1.00;100184;1281;1003825;-33
2024/01/20 09:21:38;;;;;;;7.70;4.10;;;;;;;-128.00;-1.00;-1.00;100073;1286;1059266;-31
2024/01/20 09:24:04;;;;;;;11.20;4.40;;;;;;;-128.00;-1.00;-1.00;100222;1281;1004659;-33
2024/01/20 09:26:29;;;;;;;11.50;4.70;;;;;;;-128.00;-1.00;-1.00;100175;1281;1004196;-33
2024/01/20 09:28:55;;;;;;;19.40;5.90;;;;;;;-128.00;-1.00;-1.00;100162;1281;1004288;-31
2024/01/20 09:31:20;;;;;;;16.30;5.80;;;;;;;-128.00;-1.00;-1.00;100171;1281;1004382;-33
2024/01/20 09:33:46;;;;;;;9.50;4.30;;;;;;;-128.00;-1.00;-1.00;100186;1281;1014884;-33
2024/01/20 09:36:12;;;;;;;;;;;;;;;-128.00;-1.00;-1.00;100115;1281;1005154;-32
2024/01/20 09:38:38;;;;;;;12.20;6.30;;;;;;;-128.00;-1.00;-1.00;100166;1281;1003938;-33
2024/01/20 09:41:09;;;;;;;14.50;6.20;;;;;;;-128.00;-1.00;-1.00;100084;1281;1004126;-31
2024/01/20 09:43:38;;;;;;;12.10;6.90;;;;;;;-128.00;-1.00;-1.00;100118;1282;1058076;-32
2024/01/20 09:46:03;;;;;;;13.90;6.90;;;;;;;-128.00;-1.00;-1.00;100124;1282;1013595;-31
2024/01/20 09:48:29;;;;;;;10.90;5.70;;;;;;;-128.00;-1.00;-1.00;100119;1282;1004865;-33
2024/01/20 09:50:55;;;;;;;7.10;3.90;;;;;;;-128.00;-1.00;-1.00;100181;1281;1060558;-33
2024/01/20 09:53:21;;;;;;;18.00;9.30;;;;;;;-128.00;-1.00;-1.00;100136;1281;1055990;-33
2024/01/20 09:55:46;;;;;;;13.60;5.80;;;;;;;-128.00;-1.00;-1.00;99908;1282;1004032;-30
2024/01/20 09:58:13;;;;;;;12.30;6.20;;;;;;;-128.00;-1.00;-1.00;100270;1281;1004363;-33
2024/01/20 10:00:40;;;;;;;14.40;5.70;;;;;;;-128.00;-1.00;-1.00;100204;1281;1047053;-31
2024/01/20 10:03:08;;;;;;;17.80;6.10;;;;;;;-128.00;-1.00;-1.00;100231;1281;1004180;-32
2024/01/20 10:05:34;;;;;;;13.10;4.90;;;;;;;-128.00;-1.00;-1.00;100152;1281;1004233;-33
2024/01/20 10:08:05;;;;;;;16.40;8.60;;;;;;;-128.00;-1.00;-1.00;100049;1281;1004790;-30
2024/01/20 10:10:32;;;;;;;12.90;7.20;;;;;;;-128.00;-1.00;-1.00;100130;1281;1014682;-30
2024/01/20 10:12:57;;;;;;;10.70;5.20;;;;;;;-128.00;-1.00;-1.00;100166;1284;1004064;-32
2024/01/20 10:15:28;;;;;;;11.50;5.20;;;;;;;-128.00;-1.00;-1.00;100079;1281;1003770;-32
2024/01/20 10:17:55;;;;;;;7.70;4.80;;;;;;;-128.00;-1.00;-1.00;100158;1281;1060428;-32
2024/01/20 10:20:25;;;;;;;10.60;6.00;;;;;;;-128.00;-1.00;-1.00;100078;1282;1004153;-32
2024/01/20 10:22:51;;;;;;;13.10;6.80;;;;;;;-128.00;-1.00;-1.00;100087;1282;1059831;-32
2024/01/20 10:25:20;;;;;;;11.30;4.40;;;;;;;-128.00;-1.00;-1.00;100171;1282;1004385;-32
2024/01/20 10:27:47;;;;;;;28.60;14.10;;;;;;;-128.00;-1.00;-1.00;100139;1286;1045744;-30
2024/01/20 10:30:18;;;;;;;12.50;7.10;;;;;;;-128.00;-1.00;-1.00;100109;1281;1004511;-32
2024/01/20 10:32:44;;;;;;;25.00;13.60;;;;;;;-128.00;-1.00;-1.00;100168;1281;1060677;-31
2024/01/20 10:35:10;;;;;;;13.10;6.60;;;;;;;-128.00;-1.00;-1.00;100151;1281;1004266;-32
2024/01/20 10:37:39;;;;;;;12.90;5.70;;;;;;;-128.00;-1.00;-1.00;100122;1281;1004437;-30
2024/01/20 10:40:05;;;;;;;12.50;5.70;;;;;;;-128.00;-1.00;-1.00;100165;1282;1004387;-31
2024/01/20 10:42:31;;;;;;;10.70;4.50;;;;;;;-128.00;-1.00;-1.00;100110;1285;1004750;-29
2024/01/20 10:45:06;;;;;;;9.80;5.80;;;;;;;-128.00;-1.00;-1.00;100104;1282;1004892;-32
2024/01/20 10:47:36;;;;;;;12.20;5.00;;;;;;;-128.00;-1.00;-1.00;100084;1282;1060126;-32
2024/01/20 10:50:04;;;;;;;17.50;5.60;;;;;;;-128.00;-1.00;-1.00;100174;1281;1056796;-29
2024/01/20 10:52:34;;;;;;;13.30;5.90;;;;;;;-128.00;-1.00;-1.00;100133;1280;1004456;-32
2024/01/20 10:55:00;;;;;;;10.00;5.60;;;;;;;-128.00;-1.00;-1.00;100143;1281;1014399;-30
2024/01/20 10:57:27;;;;;;;10.70;4.60;;;;;;;-128.00;-1.00;-1.00;100201;1284;1004521;-32
2024/01/20 10:59:53;;;;;;;8.80;5.60;;;;;;;-128.00;-1.00;-1.00;100212;1280;1004531;-33
2024/01/20 11:02:19;;;;;;;10.30;5.40;;;;;;;-128.00;-1.00;-1.00;100139;1281;1004840;-33
2024/01/20 11:04:45;;;;;;;7.00;3.70;;;;;;;-128.00;-1.00;-1.00;100115;1282;1004275;-33
2024/01/20 11:07:11;;;;;;;;;;;;;;;-128.00;-1.00;-1.00;100192;1281;1014685;-32
2024/01/20 11:09:38;;;;;;;;;;;;;;;-128.00;-1.00;-1.00;100188;1284;1004603;-30
2024/01/20 11:12:07;;;;;;;30.20;12.40;;;;;;;-128.00;-1.00;-1.00;100106;1281;1004992;-33
2024/01/20 11:14:33;;;;;;;13.70;5.70;;;;;;;-128.00;-1.00;-1.00;100193;1281;1060110;-31
2024/01/20 11:17:11;;;;;;;;;;;;;;;-128.00;-1.00;-1.00;100078;1281;1005295;-33
2024/01/20 11:19:36;;;;;;;;;;;;;;;-128.00;-1.00;-1.00;100129;1282;1058883;-33
2024/01/20 11:22:02;;;;;;;13.00;7.40;;;;;;;-128.00;-1.00;-1.00;100131;1282;1004523;-30
2024/01/20 11:24:40;;;;;;;;;;;;;;;-128.00;-1.00;-1.00;100221;1284;1004602;-30
2024/01/20 11:27:06;;;;;;;16.30;7.00;;;;;;;-128.00;-1.00;-1.00;100246;1284;1060798;-30
2024/01/20 11:29:32;;;;;;;12.00;6.30;;;;;;;-128.00;-1.00;-1.00;100164;1281;1005276;-30
2024/01/20 11:31:58;;;;;;;13.20;7.10;;;;;;;-128.00;-1.00;-1.00;100180;1284;1004531;-30
2024/01/20 11:34:23;;;;;;;11.40;5.20;;;;;;;-128.00;-1.00;-1.00;100185;1282;1004475;-31
2024/01/20 11:36:49;;;;;;;17.30;7.90;;;;;;;-128.00;-1.00;-1.00;100116;1281;1047385;-32
2024/01/20 11:39:17;;;;;;;;;;;;;;;-128.00;-1.00;-1.00;100170;1282;1004075;-32
2024/01/20 11:41:43;;;;;;;11.90;5.60;;;;;;;-128.00;-1.00;-1.00;100218;1282;1004115;-30
2024/01/20 11:44:10;;;;;;;16.10;6.70;;;;;;;-128.00;-1.00;-1.00;100032;1281;1004655;-31
2024/01/20 11:46:36;;;;;;;8.30;4.00;;;;;;;-128.00;-1.00;-1.00;100163;1282;1004159;-33